sensor_id;sensor_type;location;lat;lon;timestamp;temperature;humidity
47174;DHT22;36730;49.036;9.094;2022-07-23T00:02:01;32.30;60.10
47174;DHT22;36730;49.036;9.094;2022-07-23T00:04:26;32.20;59.90
47174;DHT22;36730;49.036;9.094;2022-07-23T00:06:52;32.30;60.00
47174;DHT22;36730;49.036;9.094;2022-07-23T00:09:17;32.20;59.90
47174;DHT22;36730;49.036;9.094;2022-07-23T00:11:43;32.20;60.10
47174;DHT22;36730;49.036;9.094;2022-07-23T00:14:08;32.20;60.00
47174;DHT22;36730;49.036;9.094;2022-07-23T00:16:34;32.20;60.20
47174;DHT22;36730;49.036;9.094;2022-07-23T00:18:59;32.20;60.70
47174;DHT22;36730;49.036;9.094;2022-07-23T00:21:26;32.30;60.20
47174;DHT22;36730;49.036;9.094;2022-07-23T00:23:52;32.20;60.10
47174;DHT22;36730;49.036;9.094;2022-07-23T00:26:17;32.20;60.10
47174;DHT22;36730;49.036;9.094;2022-07-23T00:28:43;32.20;60.20
47174;DHT22;36730;49.036;9.094;2022-07-23T00:31:08;32.20;60.20
47174;DHT22;36730;49.036;9.094;2022-07-23T00:33:34;32.20;60.20
47174;DHT22;36730;49.036;9.094;2022-07-23T00:35:59;32.20;60.20
47174;DHT22;36730;49.036;9.094;2022-07-23T00:38:25;32.20;60.30
47174;DHT22;36730;49.036;9.094;2022-07-23T00:40:50;32.20;60.30
47174;DHT22;36730;49.036;9.094;2022-07-23T00:43:16;32.20;60.30
47174;DHT22;36730;49.036;9.094;2022-07-23T00:45:41;32.20;60.30
47174;DHT22;36730;49.036;9.094;2022-07-23T00:48:07;32.20;60.20
47174;DHT22;36730;49.036;9.094;2022-07-23T00:50:32;32.20;60.30
47174;DHT22;36730;49.036;9.094;2022-07-23T00:52:58;32.20;60.30
47174;DHT22;36730;49.036;9.094;2022-07-23T00:55:23;32.20;60.40
47174;DHT22;36730;49.036;9.094;2022-07-23T00:57:49;32.20;60.40
47174;DHT22;36730;49.036;9.094;2022-07-23T01:00:15;32.20;60.30
47174;DHT22;36730;49.036;9.094;2022-07-23T01:02:41;32.20;60.40
47174;DHT22;36730;49.036;9.094;2022-07-23T01:05:07;32.20;60.40
47174;DHT22;36730;49.036;9.094;2022-07-23T01:07:33;32.20;60.30
47174;DHT22;36730;49.036;9.094;2022-07-23T01:09:58;32.20;60.40
47174;DHT22;36730;49.036;9.094;2022-07-23T01:12:24;32.20;60.40
47174;DHT22;36730;49.036;9.094;2022-07-23T01:14:59;32.20;60.40
47174;DHT22;36730;49.036;9.094;2022-07-23T01:17:25;32.20;60.50
47174;DHT22;36730;49.036;9.094;2022-07-23T01:19:50;32.20;60.50
47174;DHT22;36730;49.036;9.094;2022-07-23T01:22:17;32.20;60.50
47174;DHT22;36730;49.036;9.094;2022-07-23T01:24:43;32.20;60.40
47174;DHT22;36730;49.036;9.094;2022-07-23T01:27:08;32.20;60.50
47174;DHT22;36730;49.036;9.094;2022-07-23T01:29:34;32.20;60.50
47174;DHT22;36730;49.036;9.094;2022-07-23T01:31:59;32.20;60.50
47174;DHT22;36730;49.036;9.094;2022-07-23T01:34:25;32.20;60.50
47174;DHT22;36730;49.036;9.094;2022-07-23T01:36:50;32.20;60.40
47174;DHT22;36730;49.036;9.094;2022-07-23T01:39:16;32.20;60.60
47174;DHT22;36730;49.036;9.094;2022-07-23T01:41:41;32.10;60.50
47174;DHT22;36730;49.036;9.094;2022-07-23T01:44:07;32.10;60.50
47174;DHT22;36730;49.036;9.094;2022-07-23T01:46:32;32.20;60.60
47174;DHT22;36730;49.036;9.094;2022-07-23T01:48:58;32.10;61.20
47174;DHT22;36730;49.036;9.094;2022-07-23T01:51:23;32.10;60.60
47174;DHT22;36730;49.036;9.094;2022-07-23T01:53:49;32.10;60.60
47174;DHT22;36730;49.036;9.094;2022-07-23T01:56:14;32.10;60.60
47174;DHT22;36730;49.036;9.094;2022-07-23T01:58:40;32.10;60.60
47174;DHT22;36730;49.036;9.094;2022-07-23T02:01:06;32.10;60.60
47174;DHT22;36730;49.036;9.094;2022-07-23T02:03:31;32.10;60.60
47174;DHT22;36730;49.036;9.094;2022-07-23T02:05:57;32.10;60.70
47174;DHT22;36730;49.036;9.094;2022-07-23T02:08:22;32.10;60.70
47174;DHT22;36730;49.036;9.094;2022-07-23T02:10:48;32.10;60.70
47174;DHT22;36730;49.036;9.094;2022-07-23T02:13:14;32.10;60.60
47174;DHT22;36730;49.036;9.094;2022-07-23T02:15:39;32.10;60.70
47174;DHT22;36730;49.036;9.094;2022-07-23T02:18:05;32.10;60.70
47174;DHT22;36730;49.036;9.094;2022-07-23T02:20:31;32.10;60.70
47174;DHT22;36730;49.036;9.094;2022-07-23T02:22:56;32.10;60.80
47174;DHT22;36730;49.036;9.094;2022-07-23T02:25:22;32.10;60.80
47174;DHT22;36730;49.036;9.094;2022-07-23T02:27:47;32.10;60.80
47174;DHT22;36730;49.036;9.094;2022-07-23T02:30:13;32.10;60.90
47174;DHT22;36730;49.036;9.094;2022-07-23T02:32:38;32.10;60.80
47174;DHT22;36730;49.036;9.094;2022-07-23T02:35:05;32.10;60.80
47174;DHT22;36730;49.036;9.094;2022-07-23T02:37:31;32.10;60.80
47174;DHT22;36730;49.036;9.094;2022-07-23T02:39:56;32.10;60.80
47174;DHT22;36730;49.036;9.094;2022-07-23T02:42:22;32.10;60.90
47174;DHT22;36730;49.036;9.094;2022-07-23T02:44:49;32.10;60.90
47174;DHT22;36730;49.036;9.094;2022-07-23T02:47:15;32.10;60.90
47174;DHT22;36730;49.036;9.094;2022-07-23T02:49:40;32.10;60.90
47174;DHT22;36730;49.036;9.094;2022-07-23T02:52:06;32.10;60.90
47174;DHT22;36730;49.036;9.094;2022-07-23T02:54:31;32.10;60.90
47174;DHT22;36730;49.036;9.094;2022-07-23T02:56:57;32.10;60.90
47174;DHT22;36730;49.036;9.094;2022-07-23T02:59:22;32.10;60.90
47174;DHT22;36730;49.036;9.094;2022-07-23T03:01:48;32.10;61.00
47174;DHT22;36730;49.036;9.094;2022-07-23T03:04:13;32.10;61.00
47174;DHT22;36730;49.036;9.094;2022-07-23T03:06:39;32.00;58.60
47174;DHT22;36730;49.036;9.094;2022-07-23T03:09:05;31.70;57.60
47174;DHT22;36730;49.036;9.094;2022-07-23T03:11:30;31.50;57.50
47174;DHT22;36730;49.036;9.094;2022-07-23T03:13:56;31.10;57.90
47174;DHT22;36730;49.036;9.094;2022-07-23T03:16:21;30.80;58.10
47174;DHT22;36730;49.036;9.094;2022-07-23T03:18:47;30.70;58.40
47174;DHT22;36730;49.036;9.094;2022-07-23T03:21:12;30.40;59.00
47174;DHT22;36730;49.036;9.094;2022-07-23T03:23:38;30.20;59.60
47174;DHT22;36730;49.036;9.094;2022-07-23T03:26:03;29.90;59.70
47174;DHT22;36730;49.036;9.094;2022-07-23T03:28:29;29.10;61.90
47174;DHT22;36730;49.036;9.094;2022-07-23T03:30:54;28.70;63.10
47174;DHT22;36730;49.036;9.094;2022-07-23T03:33:20;28.30;63.80
47174;DHT22;36730;49.036;9.094;2022-07-23T03:35:46;28.20;64.70
47174;DHT22;36730;49.036;9.094;2022-07-23T03:38:12;28.10;64.60
47174;DHT22;36730;49.036;9.094;2022-07-23T03:40:38;28.00;65.10
47174;DHT22;36730;49.036;9.094;2022-07-23T03:43:03;27.70;65.20
47174;DHT22;36730;49.036;9.094;2022-07-23T03:45:29;27.50;65.90
47174;DHT22;36730;49.036;9.094;2022-07-23T03:47:55;27.40;66.50
47174;DHT22;36730;49.036;9.094;2022-07-23T03:50:21;27.10;67.00
47174;DHT22;36730;49.036;9.094;2022-07-23T03:52:46;26.80;67.40
47174;DHT22;36730;49.036;9.094;2022-07-23T03:55:12;26.80;68.30
47174;DHT22;36730;49.036;9.094;2022-07-23T03:57:37;27.00;67.40
47174;DHT22;36730;49.036;9.094;2022-07-23T04:00:03;26.70;68.20
47174;DHT22;36730;49.036;9.094;2022-07-23T04:02:29;26.50;68.80
47174;DHT22;36730;49.036;9.094;2022-07-23T04:04:55;26.30;70.10
47174;DHT22;36730;49.036;9.094;2022-07-23T04:07:20;26.40;69.90
47174;DHT22;36730;49.036;9.094;2022-07-23T04:09:46;26.50;69.10
47174;DHT22;36730;49.036;9.094;2022-07-23T04:12:12;26.70;68.30
47174;DHT22;36730;49.036;9.094;2022-07-23T04:14:38;26.90;67.80
47174;DHT22;36730;49.036;9.094;2022-07-23T04:17:03;27.00;67.20
47174;DHT22;36730;49.036;9.094;2022-07-23T04:19:29;27.20;67.00
47174;DHT22;36730;49.036;9.094;2022-07-23T04:21:56;27.20;66.70
47174;DHT22;36730;49.036;9.094;2022-07-23T04:24:21;27.30;66.80
47174;DHT22;36730;49.036;9.094;2022-07-23T04:26:47;27.40;66.30
47174;DHT22;36730;49.036;9.094;2022-07-23T04:29:12;27.50;66.00
47174;DHT22;36730;49.036;9.094;2022-07-23T04:31:38;27.50;65.70
47174;DHT22;36730;49.036;9.094;2022-07-23T04:34:03;27.60;65.70
47174;DHT22;36730;49.036;9.094;2022-07-23T04:36:28;27.70;66.00
47174;DHT22;36730;49.036;9.094;2022-07-23T04:38:54;27.70;65.30
47174;DHT22;36730;49.036;9.094;2022-07-23T04:41:20;27.70;65.50
47174;DHT22;36730;49.036;9.094;2022-07-23T04:43:45;27.80;66.70
47174;DHT22;36730;49.036;9.094;2022-07-23T04:46:11;27.80;66.30
47174;DHT22;36730;49.036;9.094;2022-07-23T04:48:37;27.80;66.90
47174;DHT22;36730;49.036;9.094;2022-07-23T04:51:02;27.80;66.60
47174;DHT22;36730;49.036;9.094;2022-07-23T04:53:28;27.70;66.80
47174;DHT22;36730;49.036;9.094;2022-07-23T04:55:54;27.70;67.40
47174;DHT22;36730;49.036;9.094;2022-07-23T04:58:19;27.70;68.00
47174;DHT22;36730;49.036;9.094;2022-07-23T05:00:45;27.70;68.80
47174;DHT22;36730;49.036;9.094;2022-07-23T05:03:11;27.70;68.00
47174;DHT22;36730;49.036;9.094;2022-07-23T05:05:37;27.50;68.10
47174;DHT22;36730;49.036;9.094;2022-07-23T05:08:02;27.60;68.30
47174;DHT22;36730;49.036;9.094;2022-07-23T05:10:28;27.50;67.80
47174;DHT22;36730;49.036;9.094;2022-07-23T05:12:53;27.50;67.60
47174;DHT22;36730;49.036;9.094;2022-07-23T05:15:19;27.50;67.10
47174;DHT22;36730;49.036;9.094;2022-07-23T05:17:44;27.60;67.30
47174;DHT22;36730;49.036;9.094;2022-07-23T05:20:10;27.60;67.00
47174;DHT22;36730;49.036;9.094;2022-07-23T05:22:35;27.60;66.70
47174;DHT22;36730;49.036;9.094;2022-07-23T05:25:01;27.50;66.70
47174;DHT22;36730;49.036;9.094;2022-07-23T05:27:26;27.50;66.90
47174;DHT22;36730;49.036;9.094;2022-07-23T05:29:52;27.40;67.00
47174;DHT22;36730;49.036;9.094;2022-07-23T05:32:17;27.40;67.30
47174;DHT22;36730;49.036;9.094;2022-07-23T05:34:43;27.50;67.10
47174;DHT22;36730;49.036;9.094;2022-07-23T05:37:08;27.40;67.10
47174;DHT22;36730;49.036;9.094;2022-07-23T05:39:34;27.40;67.60
47174;DHT22;36730;49.036;9.094;2022-07-23T05:41:59;27.40;68.30
47174;DHT22;36730;49.036;9.094;2022-07-23T05:44:25;27.40;67.60
47174;DHT22;36730;49.036;9.094;2022-07-23T05:46:52;27.40;67.70
47174;DHT22;36730;49.036;9.094;2022-07-23T05:49:18;27.40;67.70
47174;DHT22;36730;49.036;9.094;2022-07-23T05:51:43;27.40;67.70
47174;DHT22;36730;49.036;9.094;2022-07-23T05:54:09;27.40;67.50
47174;DHT22;36730;49.036;9.094;2022-07-23T05:56:35;27.30;67.60
47174;DHT22;36730;49.036;9.094;2022-07-23T05:59:00;27.30;67.70
47174;DHT22;36730;49.036;9.094;2022-07-23T06:01:26;27.20;67.90
47174;DHT22;36730;49.036;9.094;2022-07-23T06:03:52;27.20;68.10
47174;DHT22;36730;49.036;9.094;2022-07-23T06:06:17;27.20;69.00
47174;DHT22;36730;49.036;9.094;2022-07-23T06:08:43;27.20;69.40
47174;DHT22;36730;49.036;9.094;2022-07-23T06:11:08;27.20;69.70
47174;DHT22;36730;49.036;9.094;2022-07-23T06:13:34;27.20;69.80
47174;DHT22;36730;49.036;9.094;2022-07-23T06:15:59;27.20;70.20
47174;DHT22;36730;49.036;9.094;2022-07-23T06:18:25;27.20;71.20
47174;DHT22;36730;49.036;9.094;2022-07-23T06:20:50;27.30;71.90
47174;DHT22;36730;49.036;9.094;2022-07-23T06:23:16;27.30;70.40
47174;DHT22;36730;49.036;9.094;2022-07-23T06:25:41;27.30;70.60
47174;DHT22;36730;49.036;9.094;2022-07-23T06:28:07;27.40;71.80
47174;DHT22;36730;49.036;9.094;2022-07-23T06:30:32;27.50;71.20
47174;DHT22;36730;49.036;9.094;2022-07-23T06:32:58;27.50;71.60
47174;DHT22;36730;49.036;9.094;2022-07-23T06:35:23;27.50;71.40
47174;DHT22;36730;49.036;9.094;2022-07-23T06:37:49;27.50;71.20
47174;DHT22;36730;49.036;9.094;2022-07-23T06:40:14;27.60;71.00
47174;DHT22;36730;49.036;9.094;2022-07-23T06:42:40;27.60;70.90
47174;DHT22;36730;49.036;9.094;2022-07-23T06:45:06;27.60;70.80
47174;DHT22;36730;49.036;9.094;2022-07-23T06:47:31;27.40;71.60
47174;DHT22;36730;49.036;9.094;2022-07-23T06:49:57;27.40;72.00
47174;DHT22;36730;49.036;9.094;2022-07-23T06:52:23;27.40;72.50
47174;DHT22;36730;49.036;9.094;2022-07-23T06:54:48;27.00;73.30
47174;DHT22;36730;49.036;9.094;2022-07-23T06:57:14;26.80;75.00
47174;DHT22;36730;49.036;9.094;2022-07-23T06:59:40;26.70;74.40
47174;DHT22;36730;49.036;9.094;2022-07-23T07:02:06;26.70;74.80
47174;DHT22;36730;49.036;9.094;2022-07-23T07:04:31;26.70;74.60
47174;DHT22;36730;49.036;9.094;2022-07-23T07:06:57;26.80;75.30
47174;DHT22;36730;49.036;9.094;2022-07-23T07:09:22;26.90;76.50
47174;DHT22;36730;49.036;9.094;2022-07-23T07:11:48;26.80;77.60
47174;DHT22;36730;49.036;9.094;2022-07-23T07:14:13;26.80;77.60
47174;DHT22;36730;49.036;9.094;2022-07-23T07:16:39;26.90;79.80
47174;DHT22;36730;49.036;9.094;2022-07-23T07:19:04;27.10;80.10
47174;DHT22;36730;49.036;9.094;2022-07-23T07:21:30;27.10;78.90
47174;DHT22;36730;49.036;9.094;2022-07-23T07:23:55;27.20;79.20
47174;DHT22;36730;49.036;9.094;2022-07-23T07:26:21;27.30;80.10
47174;DHT22;36730;49.036;9.094;2022-07-23T07:28:46;27.30;80.50
47174;DHT22;36730;49.036;9.094;2022-07-23T07:31:12;27.30;81.30
47174;DHT22;36730;49.036;9.094;2022-07-23T07:33:38;27.40;81.10
47174;DHT22;36730;49.036;9.094;2022-07-23T07:36:03;27.40;80.60
47174;DHT22;36730;49.036;9.094;2022-07-23T07:38:29;27.50;81.00
47174;DHT22;36730;49.036;9.094;2022-07-23T07:40:54;27.40;82.10
47174;DHT22;36730;49.036;9.094;2022-07-23T07:43:20;27.40;82.50
47174;DHT22;36730;49.036;9.094;2022-07-23T07:45:45;27.30;82.80
47174;DHT22;36730;49.036;9.094;2022-07-23T07:48:11;27.40;83.80
47174;DHT22;36730;49.036;9.094;2022-07-23T07:50:36;27.30;83.70
47174;DHT22;36730;49.036;9.094;2022-07-23T07:53:02;27.30;84.40
47174;DHT22;36730;49.036;9.094;2022-07-23T07:55:28;27.30;85.20
47174;DHT22;36730;49.036;9.094;2022-07-23T07:57:53;27.20;85.80
47174;DHT22;36730;49.036;9.094;2022-07-23T08:00:19;27.20;84.90
47174;DHT22;36730;49.036;9.094;2022-07-23T08:02:48;27.20;87.30
47174;DHT22;36730;49.036;9.094;2022-07-23T08:05:14;27.10;87.80
47174;DHT22;36730;49.036;9.094;2022-07-23T08:07:43;27.20;86.80
47174;DHT22;36730;49.036;9.094;2022-07-23T08:10:09;27.10;86.90
47174;DHT22;36730;49.036;9.094;2022-07-23T08:12:39;27.10;87.70
47174;DHT22;36730;49.036;9.094;2022-07-23T08:15:05;27.00;87.60
47174;DHT22;36730;49.036;9.094;2022-07-23T08:17:31;27.00;88.30
47174;DHT22;36730;49.036;9.094;2022-07-23T08:19:57;27.10;89.20
47174;DHT22;36730;49.036;9.094;2022-07-23T08:22:22;27.10;89.10
47174;DHT22;36730;49.036;9.094;2022-07-23T08:24:48;27.10;88.40
47174;DHT22;36730;49.036;9.094;2022-07-23T08:27:13;27.20;90.50
47174;DHT22;36730;49.036;9.094;2022-07-23T08:29:39;27.20;89.40
47174;DHT22;36730;49.036;9.094;2022-07-23T08:32:04;27.20;89.00
47174;DHT22;36730;49.036;9.094;2022-07-23T08:34:30;27.30;88.40
47174;DHT22;36730;49.036;9.094;2022-07-23T08:36:55;27.30;88.70
47174;DHT22;36730;49.036;9.094;2022-07-23T08:39:21;27.30;88.40
47174;DHT22;36730;49.036;9.094;2022-07-23T08:41:46;27.40;87.50
47174;DHT22;36730;49.036;9.094;2022-07-23T08:44:13;27.40;88.70
47174;DHT22;36730;49.036;9.094;2022-07-23T08:46:40;27.40;87.70
47174;DHT22;36730;49.036;9.094;2022-07-23T08:49:06;27.50;87.70
47174;DHT22;36730;49.036;9.094;2022-07-23T08:51:32;27.40;89.70
47174;DHT22;36730;49.036;9.094;2022-07-23T08:53:58;27.40;89.40
47174;DHT22;36730;49.036;9.094;2022-07-23T08:56:23;27.40;89.50
47174;DHT22;36730;49.036;9.094;2022-07-23T08:58:49;27.40;89.20
47174;DHT22;36730;49.036;9.094;2022-07-23T09:01:14;27.40;89.20
47174;DHT22;36730;49.036;9.094;2022-07-23T09:03:40;27.40;90.30
47174;DHT22;36730;49.036;9.094;2022-07-23T09:06:05;27.40;90.40
47174;DHT22;36730;49.036;9.094;2022-07-23T09:08:38;27.40;90.20
47174;DHT22;36730;49.036;9.094;2022-07-23T09:11:04;27.40;90.10
47174;DHT22;36730;49.036;9.094;2022-07-23T09:16:04;27.50;89.70
47174;DHT22;36730;49.036;9.094;2022-07-23T09:18:34;27.60;89.70
47174;DHT22;36730;49.036;9.094;2022-07-23T09:21:14;27.60;89.40
47174;DHT22;36730;49.036;9.094;2022-07-23T09:23:44;27.70;89.80
47174;DHT22;36730;49.036;9.094;2022-07-23T09:26:17;27.70;88.40
47174;DHT22;36730;49.036;9.094;2022-07-23T09:28:53;27.60;88.20
47174;DHT22;36730;49.036;9.094;2022-07-23T09:31:19;27.70;88.10
47174;DHT22;36730;49.036;9.094;2022-07-23T09:33:45;27.70;89.40
47174;DHT22;36730;49.036;9.094;2022-07-23T09:36:11;27.80;89.00
47174;DHT22;36730;49.036;9.094;2022-07-23T09:38:47;27.80;86.90
47174;DHT22;36730;49.036;9.094;2022-07-23T09:41:13;27.90;89.40
47174;DHT22;36730;49.036;9.094;2022-07-23T09:43:39;27.90;89.00
47174;DHT22;36730;49.036;9.094;2022-07-23T09:46:26;27.90;86.00
47174;DHT22;36730;49.036;9.094;2022-07-23T09:48:52;27.90;85.50
47174;DHT22;36730;49.036;9.094;2022-07-23T09:51:19;27.90;84.80
47174;DHT22;36730;49.036;9.094;2022-07-23T09:53:58;27.90;83.90
47174;DHT22;36730;49.036;9.094;2022-07-23T09:56:23;28.00;83.30
47174;DHT22;36730;49.036;9.094;2022-07-23T09:58:50;27.90;83.80
47174;DHT22;36730;49.036;9.094;2022-07-23T10:01:27;27.90;83.90
47174;DHT22;36730;49.036;9.094;2022-07-23T10:03:53;28.00;83.40
47174;DHT22;36730;49.036;9.094;2022-07-23T10:06:19;28.00;83.00
47174;DHT22;36730;49.036;9.094;2022-07-23T10:08:44;28.00;82.50
47174;DHT22;36730;49.036;9.094;2022-07-23T10:11:13;28.10;82.70
47174;DHT22;36730;49.036;9.094;2022-07-23T10:13:40;28.20;81.60
47174;DHT22;36730;49.036;9.094;2022-07-23T10:16:20;28.30;81.40
47174;DHT22;36730;49.036;9.094;2022-07-23T10:18:46;28.30;80.70
47174;DHT22;36730;49.036;9.094;2022-07-23T10:21:12;28.40;80.70
47174;DHT22;36730;49.036;9.094;2022-07-23T10:26:40;28.60;79.30
47174;DHT22;36730;49.036;9.094;2022-07-23T10:31:47;28.80;78.50
47174;DHT22;36730;49.036;9.094;2022-07-23T10:34:20;28.80;77.50
47174;DHT22;36730;49.036;9.094;2022-07-23T10:39:26;28.90;77.10
47174;DHT22;36730;49.036;9.094;2022-07-23T10:41:53;29.10;76.20
47174;DHT22;36730;49.036;9.094;2022-07-23T10:44:37;29.10;75.50
47174;DHT22;36730;49.036;9.094;2022-07-23T10:47:03;29.20;74.30
47174;DHT22;36730;49.036;9.094;2022-07-23T10:49:41;29.20;73.30
47174;DHT22;36730;49.036;9.094;2022-07-23T10:54:39;29.40;73.50
47174;DHT22;36730;49.036;9.094;2022-07-23T10:57:05;29.40;73.20
47174;DHT22;36730;49.036;9.094;2022-07-23T10:59:32;29.40;72.60
47174;DHT22;36730;49.036;9.094;2022-07-23T11:02:21;29.50;72.90
47174;DHT22;36730;49.036;9.094;2022-07-23T11:04:48;29.60;71.10
47174;DHT22;36730;49.036;9.094;2022-07-23T11:07:15;29.60;69.90
47174;DHT22;36730;49.036;9.094;2022-07-23T11:09:41;29.60;69.60
47174;DHT22;36730;49.036;9.094;2022-07-23T11:15:13;29.70;68.90
47174;DHT22;36730;49.036;9.094;2022-07-23T11:17:39;29.70;67.80
47174;DHT22;36730;49.036;9.094;2022-07-23T11:27:39;29.80;66.90
47174;DHT22;36730;49.036;9.094;2022-07-23T11:30:05;29.80;66.60
47174;DHT22;36730;49.036;9.094;2022-07-23T11:32:33;29.80;66.50
47174;DHT22;36730;49.036;9.094;2022-07-23T11:35:00;29.80;65.80
47174;DHT22;36730;49.036;9.094;2022-07-23T11:39:58;29.90;65.60
47174;DHT22;36730;49.036;9.094;2022-07-23T11:42:24;29.90;65.10
47174;DHT22;36730;49.036;9.094;2022-07-23T11:44:50;30.00;64.50
47174;DHT22;36730;49.036;9.094;2022-07-23T11:47:20;30.00;64.30
47174;DHT22;36730;49.036;9.094;2022-07-23T11:49:55;30.00;64.40
47174;DHT22;36730;49.036;9.094;2022-07-23T11:52:21;30.10;64.70
47174;DHT22;36730;49.036;9.094;2022-07-23T11:57:13;30.30;64.10
47174;DHT22;36730;49.036;9.094;2022-07-23T11:59:39;30.40;63.80
47174;DHT22;36730;49.036;9.094;2022-07-23T12:02:05;30.50;63.70
47174;DHT22;36730;49.036;9.094;2022-07-23T12:04:41;30.50;63.40
47174;DHT22;36730;49.036;9.094;2022-07-23T12:09:51;30.60;63.10
47174;DHT22;36730;49.036;9.094;2022-07-23T12:12:17;30.70;63.20
47174;DHT22;36730;49.036;9.094;2022-07-23T12:14:56;30.70;62.90
47174;DHT22;36730;49.036;9.094;2022-07-23T12:17:26;30.80;62.80
47174;DHT22;36730;49.036;9.094;2022-07-23T12:19:53;30.90;62.80
47174;DHT22;36730;49.036;9.094;2022-07-23T12:22:19;30.90;62.70
47174;DHT22;36730;49.036;9.094;2022-07-23T12:24:57;31.00;62.70
47174;DHT22;36730;49.036;9.094;2022-07-23T12:27:24;31.00;62.50
47174;DHT22;36730;49.036;9.094;2022-07-23T12:29:49;31.10;62.50
47174;DHT22;36730;49.036;9.094;2022-07-23T12:32:25;31.20;62.40
47174;DHT22;36730;49.036;9.094;2022-07-23T12:35:12;31.20;62.20
47174;DHT22;36730;49.036;9.094;2022-07-23T12:37:38;31.30;62.30
47174;DHT22;36730;49.036;9.094;2022-07-23T12:40:21;31.40;62.10
47174;DHT22;36730;49.036;9.094;2022-07-23T12:42:47;31.40;61.80
47174;DHT22;36730;49.036;9.094;2022-07-23T12:45:13;31.40;61.80
47174;DHT22;36730;49.036;9.094;2022-07-23T12:55:57;31.60;62.00
47174;DHT22;36730;49.036;9.094;2022-07-23T12:58:24;31.60;61.80
47174;DHT22;36730;49.036;9.094;2022-07-23T13:01:00;31.70;61.70
47174;DHT22;36730;49.036;9.094;2022-07-23T13:03:37;31.70;61.50
47174;DHT22;36730;49.036;9.094;2022-07-23T13:06:03;31.70;61.40
47174;DHT22;36730;49.036;9.094;2022-07-23T13:08:30;31.80;61.40
47174;DHT22;36730;49.036;9.094;2022-07-23T13:10:57;31.80;61.40
47174;DHT22;36730;49.036;9.094;2022-07-23T13:13:23;31.80;61.40
47174;DHT22;36730;49.036;9.094;2022-07-23T13:15:49;31.90;61.50
47174;DHT22;36730;49.036;9.094;2022-07-23T13:18:15;31.90;61.30
47174;DHT22;36730;49.036;9.094;2022-07-23T13:20:42;32.00;61.30
47174;DHT22;36730;49.036;9.094;2022-07-23T13:23:08;32.00;61.20
47174;DHT22;36730;49.036;9.094;2022-07-23T13:25:33;32.00;61.10
47174;DHT22;36730;49.036;9.094;2022-07-23T13:27:59;32.10;61.20
47174;DHT22;36730;49.036;9.094;2022-07-23T13:30:25;32.10;61.20
47174;DHT22;36730;49.036;9.094;2022-07-23T13:32:50;32.20;61.20
47174;DHT22;36730;49.036;9.094;2022-07-23T13:35:16;32.20;61.10
47174;DHT22;36730;49.036;9.094;2022-07-23T13:37:41;32.20;61.00
47174;DHT22;36730;49.036;9.094;2022-07-23T13:40:09;32.20;61.00
47174;DHT22;36730;49.036;9.094;2022-07-23T13:42:35;32.30;61.00
47174;DHT22;36730;49.036;9.094;2022-07-23T13:45:01;32.30;60.90
47174;DHT22;36730;49.036;9.094;2022-07-23T13:47:26;32.40;61.00
47174;DHT22;36730;49.036;9.094;2022-07-23T13:49:52;32.40;60.80
47174;DHT22;36730;49.036;9.094;2022-07-23T13:52:17;32.40;60.80
47174;DHT22;36730;49.036;9.094;2022-07-23T13:54:43;32.40;60.70
47174;DHT22;36730;49.036;9.094;2022-07-23T13:57:08;32.40;60.70
47174;DHT22;36730;49.036;9.094;2022-07-23T13:59:34;32.50;60.70
47174;DHT22;36730;49.036;9.094;2022-07-23T14:02:01;32.50;60.80
47174;DHT22;36730;49.036;9.094;2022-07-23T14:04:26;32.50;60.80
47174;DHT22;36730;49.036;9.094;2022-07-23T14:06:52;32.50;60.70
47174;DHT22;36730;49.036;9.094;2022-07-23T14:09:17;32.60;60.60
47174;DHT22;36730;49.036;9.094;2022-07-23T14:11:43;32.60;60.50
47174;DHT22;36730;49.036;9.094;2022-07-23T14:14:08;32.60;60.50
47174;DHT22;36730;49.036;9.094;2022-07-23T14:16:34;32.60;60.30
47174;DHT22;36730;49.036;9.094;2022-07-23T14:18:59;32.70;60.30
47174;DHT22;36730;49.036;9.094;2022-07-23T14:21:25;32.70;60.30
47174;DHT22;36730;49.036;9.094;2022-07-23T14:23:50;32.70;60.20
47174;DHT22;36730;49.036;9.094;2022-07-23T14:26:15;32.70;60.10
47174;DHT22;36730;49.036;9.094;2022-07-23T14:28:41;32.70;60.10
47174;DHT22;36730;49.036;9.094;2022-07-23T14:31:06;32.80;60.30
47174;DHT22;36730;49.036;9.094;2022-07-23T14:33:32;32.80;60.30
47174;DHT22;36730;49.036;9.094;2022-07-23T14:35:57;32.80;60.20
47174;DHT22;36730;49.036;9.094;2022-07-23T14:38:24;32.80;60.20
47174;DHT22;36730;49.036;9.094;2022-07-23T14:40:49;32.80;60.20
47174;DHT22;36730;49.036;9.094;2022-07-23T14:43:15;32.80;60.30
47174;DHT22;36730;49.036;9.094;2022-07-23T14:45:40;32.80;60.30
47174;DHT22;36730;49.036;9.094;2022-07-23T14:48:06;32.80;60.00
47174;DHT22;36730;49.036;9.094;2022-07-23T14:50:32;32.90;60.30
47174;DHT22;36730;49.036;9.094;2022-07-23T14:52:58;32.90;60.10
47174;DHT22;36730;49.036;9.094;2022-07-23T14:55:23;32.90;60.10
47174;DHT22;36730;49.036;9.094;2022-07-23T14:57:48;32.90;60.00
47174;DHT22;36730;49.036;9.094;2022-07-23T15:00:14;32.90;60.00
47174;DHT22;36730;49.036;9.094;2022-07-23T15:02:40;33.00;60.00
47174;DHT22;36730;49.036;9.094;2022-07-23T15:05:05;32.90;60.00
47174;DHT22;36730;49.036;9.094;2022-07-23T15:07:31;33.00;60.00
47174;DHT22;36730;49.036;9.094;2022-07-23T15:09:57;33.00;60.10
47174;DHT22;36730;49.036;9.094;2022-07-23T15:12:22;33.00;60.10
47174;DHT22;36730;49.036;9.094;2022-07-23T15:14:48;33.00;60.20
47174;DHT22;36730;49.036;9.094;2022-07-23T15:17:14;33.00;60.20
47174;DHT22;36730;49.036;9.094;2022-07-23T15:19:39;33.00;60.20
47174;DHT22;36730;49.036;9.094;2022-07-23T15:22:05;33.00;60.20
47174;DHT22;36730;49.036;9.094;2022-07-23T15:24:30;33.00;60.50
47174;DHT22;36730;49.036;9.094;2022-07-23T15:26:57;33.00;60.50
47174;DHT22;36730;49.036;9.094;2022-07-23T15:29:23;33.00;60.30
47174;DHT22;36730;49.036;9.094;2022-07-23T15:31:49;33.00;60.20
47174;DHT22;36730;49.036;9.094;2022-07-23T15:34:14;33.00;60.10
47174;DHT22;36730;49.036;9.094;2022-07-23T15:36:40;33.10;60.30
47174;DHT22;36730;49.036;9.094;2022-07-23T15:39:06;33.10;60.30
47174;DHT22;36730;49.036;9.094;2022-07-23T15:41:31;33.10;60.20
47174;DHT22;36730;49.036;9.094;2022-07-23T15:43:57;33.10;60.30
47174;DHT22;36730;49.036;9.094;2022-07-23T15:46:22;33.10;60.30
47174;DHT22;36730;49.036;9.094;2022-07-23T15:48:48;33.10;60.20
47174;DHT22;36730;49.036;9.094;2022-07-23T15:51:14;33.10;60.30
47174;DHT22;36730;49.036;9.094;2022-07-23T15:53:41;33.10;60.30
47174;DHT22;36730;49.036;9.094;2022-07-23T15:56:06;33.10;60.20
47174;DHT22;36730;49.036;9.094;2022-07-23T15:58:32;33.10;60.10
47174;DHT22;36730;49.036;9.094;2022-07-23T16:00:58;33.10;60.10
47174;DHT22;36730;49.036;9.094;2022-07-23T16:03:24;33.10;60.10
47174;DHT22;36730;49.036;9.094;2022-07-23T16:05:49;33.10;60.10